<?xml version="1.0" encoding="UTF-8" standalone="no" ?>
<gpx xmlns="http://www.topografix.com/GPX/1/1" xmlns:xsi="http://www.w3.org/2001/XMLSchema-instance" xsi:schemaLocation="http://www.topografix.com/GPX/1/1 http://www.topografix.com/GPX/1/1/gpx.xsd" version="1.1" creator="VisuGPX - https://www.visugpx.com">
  <metadata>
    <name>8454209-journée Quintenas</name>
  </metadata>
  <trk>
    <name><![CDATA[8454209-journée Quintenas]]></name>
    <trkseg>
      <trkpt lat="45.13716" lon="4.73334">
        <ele>435</ele>
        <time>2021-02-22T17:31:35Z</time>
      </trkpt>
      <trkpt lat="45.13699" lon="4.73249">
        <ele>436</ele>
        <time>2021-02-22T17:32:25Z</time>
      </trkpt>
      <trkpt lat="45.13605" lon="4.73037">
        <ele>440</ele>
        <time>2021-02-22T17:34:46Z</time>
      </trkpt>
      <trkpt lat="45.13438" lon="4.73225">
        <ele>455</ele>
        <time>2021-02-22T17:37:37Z</time>
      </trkpt>
      <trkpt lat="45.13382" lon="4.73352">
        <ele>457</ele>
        <time>2021-02-22T17:39:02Z</time>
      </trkpt>
      <trkpt lat="45.13511" lon="4.7348">
        <ele>451</ele>
        <time>2021-02-22T17:41:08Z</time>
      </trkpt>
      <trkpt lat="45.13759" lon="4.73546">
        <ele>436</ele>
        <time>2021-02-22T17:44:30Z</time>
      </trkpt>
      <trkpt lat="45.13883" lon="4.73631">
        <ele>431</ele>
        <time>2021-02-22T17:46:20Z</time>
      </trkpt>
      <trkpt lat="45.13918" lon="4.73334">
        <ele>430</ele>
        <time>2021-02-22T17:49:10Z</time>
      </trkpt>
      <trkpt lat="45.1411" lon="4.73043">
        <ele>408</ele>
        <time>2021-02-22T17:52:55Z</time>
      </trkpt>
      <trkpt lat="45.14252" lon="4.73164">
        <ele>405</ele>
        <time>2021-02-22T17:55:08Z</time>
      </trkpt>
      <trkpt lat="45.14367" lon="4.73091">
        <ele>401</ele>
        <time>2021-02-22T17:56:49Z</time>
      </trkpt>
      <trkpt lat="45.1459" lon="4.73122">
        <ele>418</ele>
        <time>2021-02-22T17:59:48Z</time>
      </trkpt>
      <trkpt lat="45.14752" lon="4.73128">
        <ele>410</ele>
        <time>2021-02-22T18:01:58Z</time>
      </trkpt>
      <trkpt lat="45.14674" lon="4.7331">
        <ele>405</ele>
        <time>2021-02-22T18:03:58Z</time>
      </trkpt>
      <trkpt lat="45.14737" lon="4.73435">
        <ele>398</ele>
        <time>2021-02-22T18:05:25Z</time>
      </trkpt>
      <trkpt lat="45.14728" lon="4.73575">
        <ele>389</ele>
        <time>2021-02-22T18:06:44Z</time>
      </trkpt>
      <trkpt lat="45.14833" lon="4.73698">
        <ele>378</ele>
        <time>2021-02-22T18:08:33Z</time>
      </trkpt>
      <trkpt lat="45.14885" lon="4.73665">
        <ele>379</ele>
        <time>2021-02-22T18:09:19Z</time>
      </trkpt>
      <trkpt lat="45.14968" lon="4.73688">
        <ele>384</ele>
        <time>2021-02-22T18:10:27Z</time>
      </trkpt>
      <trkpt lat="45.14977" lon="4.73665">
        <ele>387</ele>
        <time>2021-02-22T18:10:42Z</time>
      </trkpt>
      <trkpt lat="45.15045" lon="4.73667">
        <ele>396</ele>
        <time>2021-02-22T18:11:36Z</time>
      </trkpt>
      <trkpt lat="45.15187" lon="4.73711">
        <ele>409</ele>
        <time>2021-02-22T18:13:32Z</time>
      </trkpt>
      <trkpt lat="45.15367" lon="4.7381">
        <ele>422</ele>
        <time>2021-02-22T18:16:07Z</time>
      </trkpt>
      <trkpt lat="45.15472" lon="4.73851">
        <ele>426</ele>
        <time>2021-02-22T18:17:34Z</time>
      </trkpt>
      <trkpt lat="45.15632" lon="4.73874">
        <ele>429</ele>
        <time>2021-02-22T18:19:43Z</time>
      </trkpt>
      <trkpt lat="45.1576" lon="4.74037">
        <ele>444</ele>
        <time>2021-02-22T18:22:01Z</time>
      </trkpt>
      <trkpt lat="45.15844" lon="4.74001">
        <ele>451</ele>
        <time>2021-02-22T18:23:11Z</time>
      </trkpt>
      <trkpt lat="45.15884" lon="4.73994">
        <ele>454</ele>
        <time>2021-02-22T18:23:43Z</time>
      </trkpt>
      <trkpt lat="45.15851" lon="4.73782">
        <ele>450</ele>
        <time>2021-02-22T18:25:46Z</time>
      </trkpt>
      <trkpt lat="45.15938" lon="4.73675">
        <ele>450</ele>
        <time>2021-02-22T18:27:18Z</time>
      </trkpt>
      <trkpt lat="45.16064" lon="4.73598">
        <ele>444</ele>
        <time>2021-02-22T18:29:08Z</time>
      </trkpt>
      <trkpt lat="45.16132" lon="4.73506">
        <ele>443</ele>
        <time>2021-02-22T18:30:23Z</time>
      </trkpt>
      <trkpt lat="45.16118" lon="4.73292">
        <ele>438</ele>
        <time>2021-02-22T18:32:24Z</time>
      </trkpt>
      <trkpt lat="45.16078" lon="4.73014">
        <ele>433</ele>
        <time>2021-02-22T18:35:05Z</time>
      </trkpt>
      <trkpt lat="45.16051" lon="4.72958">
        <ele>428</ele>
        <time>2021-02-22T18:35:43Z</time>
      </trkpt>
      <trkpt lat="45.16055" lon="4.72917">
        <ele>427</ele>
        <time>2021-02-22T18:36:06Z</time>
      </trkpt>
      <trkpt lat="45.1604" lon="4.72856">
        <ele>422</ele>
        <time>2021-02-22T18:36:43Z</time>
      </trkpt>
      <trkpt lat="45.16073" lon="4.72761">
        <ele>419</ele>
        <time>2021-02-22T18:37:43Z</time>
      </trkpt>
      <trkpt lat="45.16078" lon="4.72527">
        <ele>412</ele>
        <time>2021-02-22T18:39:55Z</time>
      </trkpt>
      <trkpt lat="45.16114" lon="4.72394">
        <ele>408</ele>
        <time>2021-02-22T18:41:15Z</time>
      </trkpt>
      <trkpt lat="45.16136" lon="4.72292">
        <ele>408</ele>
        <time>2021-02-22T18:42:15Z</time>
      </trkpt>
      <trkpt lat="45.16182" lon="4.72233">
        <ele>407</ele>
        <time>2021-02-22T18:43:05Z</time>
      </trkpt>
      <trkpt lat="45.16262" lon="4.72174">
        <ele>401</ele>
        <time>2021-02-22T18:44:17Z</time>
      </trkpt>
      <trkpt lat="45.16299" lon="4.72106">
        <ele>396</ele>
        <time>2021-02-22T18:45:06Z</time>
      </trkpt>
      <trkpt lat="45.16319" lon="4.71932">
        <ele>387</ele>
        <time>2021-02-22T18:46:45Z</time>
      </trkpt>
      <trkpt lat="45.16371" lon="4.71866">
        <ele>377</ele>
        <time>2021-02-22T18:47:41Z</time>
      </trkpt>
      <trkpt lat="45.16386" lon="4.71761">
        <ele>368</ele>
        <time>2021-02-22T18:48:42Z</time>
      </trkpt>
      <trkpt lat="45.16351" lon="4.71636">
        <ele>362</ele>
        <time>2021-02-22T18:49:58Z</time>
      </trkpt>
      <trkpt lat="45.16413" lon="4.716">
        <ele>344</ele>
        <time>2021-02-22T18:50:51Z</time>
      </trkpt>
      <trkpt lat="45.16422" lon="4.71567">
        <ele>338</ele>
        <time>2021-02-22T18:51:11Z</time>
      </trkpt>
      <trkpt lat="45.16395" lon="4.71563">
        <ele>341</ele>
        <time>2021-02-22T18:51:33Z</time>
      </trkpt>
      <trkpt lat="45.16348" lon="4.71556">
        <ele>347</ele>
        <time>2021-02-22T18:52:11Z</time>
      </trkpt>
      <trkpt lat="45.16317" lon="4.71504">
        <ele>342</ele>
        <time>2021-02-22T18:52:49Z</time>
      </trkpt>
      <trkpt lat="45.16286" lon="4.71453">
        <ele>340</ele>
        <time>2021-02-22T18:53:27Z</time>
      </trkpt>
      <trkpt lat="45.16261" lon="4.71407">
        <ele>336</ele>
        <time>2021-02-22T18:54:00Z</time>
      </trkpt>
      <trkpt lat="45.16251" lon="4.71372">
        <ele>336</ele>
        <time>2021-02-22T18:54:21Z</time>
      </trkpt>
      <trkpt lat="45.16222" lon="4.71366">
        <ele>337</ele>
        <time>2021-02-22T18:54:45Z</time>
      </trkpt>
      <trkpt lat="45.16224" lon="4.71333">
        <ele>336</ele>
        <time>2021-02-22T18:55:03Z</time>
      </trkpt>
      <trkpt lat="45.16247" lon="4.71315">
        <ele>337</ele>
        <time>2021-02-22T18:55:24Z</time>
      </trkpt>
      <trkpt lat="45.16283" lon="4.71237">
        <ele>343</ele>
        <time>2021-02-22T18:56:17Z</time>
      </trkpt>
      <trkpt lat="45.16258" lon="4.71212">
        <ele>347</ele>
        <time>2021-02-22T18:56:42Z</time>
      </trkpt>
      <trkpt lat="45.16243" lon="4.71184">
        <ele>348</ele>
        <time>2021-02-22T18:57:01Z</time>
      </trkpt>
      <trkpt lat="45.16247" lon="4.71153">
        <ele>350</ele>
        <time>2021-02-22T18:57:19Z</time>
      </trkpt>
      <trkpt lat="45.16276" lon="4.71169">
        <ele>350</ele>
        <time>2021-02-22T18:57:44Z</time>
      </trkpt>
      <trkpt lat="45.16323" lon="4.71166">
        <ele>353</ele>
        <time>2021-02-22T18:58:22Z</time>
      </trkpt>
      <trkpt lat="45.16334" lon="4.71053">
        <ele>369</ele>
        <time>2021-02-22T18:59:26Z</time>
      </trkpt>
      <trkpt lat="45.16349" lon="4.71013">
        <ele>372</ele>
        <time>2021-02-22T18:59:52Z</time>
      </trkpt>
      <trkpt lat="45.16396" lon="4.70926">
        <ele>378</ele>
        <time>2021-02-22T19:00:54Z</time>
      </trkpt>
      <trkpt lat="45.16441" lon="4.70877">
        <ele>384</ele>
        <time>2021-02-22T19:01:39Z</time>
      </trkpt>
      <trkpt lat="45.1648" lon="4.70825">
        <ele>389</ele>
        <time>2021-02-22T19:02:22Z</time>
      </trkpt>
      <trkpt lat="45.16519" lon="4.70735">
        <ele>390</ele>
        <time>2021-02-22T19:03:22Z</time>
      </trkpt>
      <trkpt lat="45.16557" lon="4.70645">
        <ele>389</ele>
        <time>2021-02-22T19:04:21Z</time>
      </trkpt>
      <trkpt lat="45.16599" lon="4.70566">
        <ele>391</ele>
        <time>2021-02-22T19:05:17Z</time>
      </trkpt>
      <trkpt lat="45.16644" lon="4.70498">
        <ele>390</ele>
        <time>2021-02-22T19:06:09Z</time>
      </trkpt>
      <trkpt lat="45.16687" lon="4.70468">
        <ele>388</ele>
        <time>2021-02-22T19:06:48Z</time>
      </trkpt>
      <trkpt lat="45.16708" lon="4.70389">
        <ele>390</ele>
        <time>2021-02-22T19:07:35Z</time>
      </trkpt>
      <trkpt lat="45.16729" lon="4.70297">
        <ele>393</ele>
        <time>2021-02-22T19:08:30Z</time>
      </trkpt>
      <trkpt lat="45.1675" lon="4.70271">
        <ele>394</ele>
        <time>2021-02-22T19:08:52Z</time>
      </trkpt>
      <trkpt lat="45.16786" lon="4.70287">
        <ele>396</ele>
        <time>2021-02-22T19:09:22Z</time>
      </trkpt>
      <trkpt lat="45.16832" lon="4.70335">
        <ele>399</ele>
        <time>2021-02-22T19:10:08Z</time>
      </trkpt>
      <trkpt lat="45.169" lon="4.70367">
        <ele>401</ele>
        <time>2021-02-22T19:11:06Z</time>
      </trkpt>
      <trkpt lat="45.16962" lon="4.70385">
        <ele>403</ele>
        <time>2021-02-22T19:11:56Z</time>
      </trkpt>
      <trkpt lat="45.16951" lon="4.70479">
        <ele>404</ele>
        <time>2021-02-22T19:12:50Z</time>
      </trkpt>
      <trkpt lat="45.16946" lon="4.70579">
        <ele>405</ele>
        <time>2021-02-22T19:13:47Z</time>
      </trkpt>
      <trkpt lat="45.17016" lon="4.70591">
        <ele>408</ele>
        <time>2021-02-22T19:14:43Z</time>
      </trkpt>
      <trkpt lat="45.17053" lon="4.7058">
        <ele>408</ele>
        <time>2021-02-22T19:15:13Z</time>
      </trkpt>
      <trkpt lat="45.17044" lon="4.70543">
        <ele>407</ele>
        <time>2021-02-22T19:15:35Z</time>
      </trkpt>
      <trkpt lat="45.17063" lon="4.70505">
        <ele>406</ele>
        <time>2021-02-22T19:16:02Z</time>
      </trkpt>
      <trkpt lat="45.17099" lon="4.70432">
        <ele>405</ele>
        <time>2021-02-22T19:16:52Z</time>
      </trkpt>
      <trkpt lat="45.17132" lon="4.704">
        <ele>403</ele>
        <time>2021-02-22T19:17:24Z</time>
      </trkpt>
      <trkpt lat="45.17146" lon="4.70377">
        <ele>403</ele>
        <time>2021-02-22T19:17:41Z</time>
      </trkpt>
      <trkpt lat="45.17207" lon="4.7039">
        <ele>402</ele>
        <time>2021-02-22T19:18:31Z</time>
      </trkpt>
      <trkpt lat="45.17292" lon="4.70393">
        <ele>401</ele>
        <time>2021-02-22T19:19:39Z</time>
      </trkpt>
      <trkpt lat="45.17361" lon="4.70407">
        <ele>399</ele>
        <time>2021-02-22T19:20:34Z</time>
      </trkpt>
      <trkpt lat="45.1743" lon="4.70421">
        <ele>397</ele>
        <time>2021-02-22T19:21:30Z</time>
      </trkpt>
      <trkpt lat="45.17497" lon="4.70413">
        <ele>394</ele>
        <time>2021-02-22T19:22:24Z</time>
      </trkpt>
      <trkpt lat="45.17564" lon="4.70397">
        <ele>389</ele>
        <time>2021-02-22T19:23:18Z</time>
      </trkpt>
      <trkpt lat="45.17622" lon="4.70377">
        <ele>385</ele>
        <time>2021-02-22T19:24:06Z</time>
      </trkpt>
      <trkpt lat="45.17669" lon="4.70337">
        <ele>382</ele>
        <time>2021-02-22T19:24:50Z</time>
      </trkpt>
      <trkpt lat="45.17724" lon="4.70351">
        <ele>383</ele>
        <time>2021-02-22T19:25:35Z</time>
      </trkpt>
      <trkpt lat="45.17764" lon="4.70363">
        <ele>384</ele>
        <time>2021-02-22T19:26:08Z</time>
      </trkpt>
      <trkpt lat="45.17798" lon="4.70398">
        <ele>385</ele>
        <time>2021-02-22T19:26:41Z</time>
      </trkpt>
      <trkpt lat="45.17826" lon="4.70419">
        <ele>386</ele>
        <time>2021-02-22T19:27:07Z</time>
      </trkpt>
      <trkpt lat="45.17852" lon="4.70349">
        <ele>382</ele>
        <time>2021-02-22T19:27:51Z</time>
      </trkpt>
      <trkpt lat="45.17867" lon="4.70278">
        <ele>377</ele>
        <time>2021-02-22T19:28:33Z</time>
      </trkpt>
      <trkpt lat="45.17882" lon="4.70207">
        <ele>375</ele>
        <time>2021-02-22T19:29:15Z</time>
      </trkpt>
      <trkpt lat="45.17929" lon="4.7015">
        <ele>375</ele>
        <time>2021-02-22T19:30:04Z</time>
      </trkpt>
      <trkpt lat="45.17987" lon="4.70118">
        <ele>375</ele>
        <time>2021-02-22T19:30:54Z</time>
      </trkpt>
      <trkpt lat="45.18043" lon="4.70076">
        <ele>377</ele>
        <time>2021-02-22T19:31:45Z</time>
      </trkpt>
      <trkpt lat="45.18092" lon="4.70022">
        <ele>378</ele>
        <time>2021-02-22T19:32:35Z</time>
      </trkpt>
      <trkpt lat="45.18136" lon="4.69967">
        <ele>378</ele>
        <time>2021-02-22T19:33:22Z</time>
      </trkpt>
      <trkpt lat="45.18171" lon="4.69898">
        <ele>374</ele>
        <time>2021-02-22T19:34:10Z</time>
      </trkpt>
      <trkpt lat="45.18207" lon="4.6983">
        <ele>369</ele>
        <time>2021-02-22T19:34:58Z</time>
      </trkpt>
      <trkpt lat="45.18244" lon="4.69761">
        <ele>363</ele>
        <time>2021-02-22T19:35:47Z</time>
      </trkpt>
      <trkpt lat="45.18282" lon="4.69705">
        <ele>361</ele>
        <time>2021-02-22T19:36:30Z</time>
      </trkpt>
      <trkpt lat="45.18323" lon="4.69666">
        <ele>359</ele>
        <time>2021-02-22T19:37:10Z</time>
      </trkpt>
      <trkpt lat="45.18381" lon="4.69612">
        <ele>359</ele>
        <time>2021-02-22T19:38:05Z</time>
      </trkpt>
      <trkpt lat="45.1841" lon="4.69609">
        <ele>359</ele>
        <time>2021-02-22T19:38:29Z</time>
      </trkpt>
      <trkpt lat="45.18448" lon="4.69581">
        <ele>362</ele>
        <time>2021-02-22T19:39:03Z</time>
      </trkpt>
      <trkpt lat="45.18496" lon="4.69553">
        <ele>367</ele>
        <time>2021-02-22T19:39:45Z</time>
      </trkpt>
      <trkpt lat="45.18531" lon="4.69519">
        <ele>372</ele>
        <time>2021-02-22T19:40:19Z</time>
      </trkpt>
      <trkpt lat="45.18583" lon="4.6945">
        <ele>378</ele>
        <time>2021-02-22T19:41:16Z</time>
      </trkpt>
      <trkpt lat="45.18622" lon="4.69381">
        <ele>381</ele>
        <time>2021-02-22T19:42:05Z</time>
      </trkpt>
      <trkpt lat="45.18635" lon="4.69339">
        <ele>382</ele>
        <time>2021-02-22T19:42:31Z</time>
      </trkpt>
      <trkpt lat="45.18674" lon="4.69299">
        <ele>384</ele>
        <time>2021-02-22T19:43:10Z</time>
      </trkpt>
      <trkpt lat="45.18702" lon="4.69233">
        <ele>386</ele>
        <time>2021-02-22T19:43:53Z</time>
      </trkpt>
      <trkpt lat="45.1874" lon="4.69164">
        <ele>390</ele>
        <time>2021-02-22T19:44:43Z</time>
      </trkpt>
      <trkpt lat="45.1878" lon="4.69103">
        <ele>393</ele>
        <time>2021-02-22T19:45:30Z</time>
      </trkpt>
      <trkpt lat="45.18794" lon="4.69029">
        <ele>395</ele>
        <time>2021-02-22T19:46:13Z</time>
      </trkpt>
      <trkpt lat="45.18803" lon="4.69008">
        <ele>396</ele>
        <time>2021-02-22T19:46:27Z</time>
      </trkpt>
      <trkpt lat="45.18859" lon="4.69001">
        <ele>396</ele>
        <time>2021-02-22T19:47:12Z</time>
      </trkpt>
      <trkpt lat="45.18928" lon="4.68967">
        <ele>396</ele>
        <time>2021-02-22T19:48:10Z</time>
      </trkpt>
      <trkpt lat="45.1897" lon="4.6892">
        <ele>396</ele>
        <time>2021-02-22T19:48:53Z</time>
      </trkpt>
      <trkpt lat="45.19003" lon="4.68862">
        <ele>396</ele>
        <time>2021-02-22T19:49:35Z</time>
      </trkpt>
      <trkpt lat="45.19034" lon="4.68798">
        <ele>396</ele>
        <time>2021-02-22T19:50:19Z</time>
      </trkpt>
      <trkpt lat="45.19064" lon="4.6875">
        <ele>395</ele>
        <time>2021-02-22T19:50:55Z</time>
      </trkpt>
      <trkpt lat="45.19069" lon="4.687">
        <ele>395</ele>
        <time>2021-02-22T19:51:24Z</time>
      </trkpt>
      <trkpt lat="45.19107" lon="4.68701">
        <ele>394</ele>
        <time>2021-02-22T19:51:54Z</time>
      </trkpt>
      <trkpt lat="45.19177" lon="4.68716">
        <ele>392</ele>
        <time>2021-02-22T19:52:51Z</time>
      </trkpt>
      <trkpt lat="45.19252" lon="4.68733">
        <ele>391</ele>
        <time>2021-02-22T19:53:52Z</time>
      </trkpt>
      <trkpt lat="45.19342" lon="4.68772">
        <ele>390</ele>
        <time>2021-02-22T19:55:07Z</time>
      </trkpt>
      <trkpt lat="45.19404" lon="4.6878">
        <ele>391</ele>
        <time>2021-02-22T19:55:57Z</time>
      </trkpt>
      <trkpt lat="45.19457" lon="4.68771">
        <ele>393</ele>
        <time>2021-02-22T19:56:40Z</time>
      </trkpt>
      <trkpt lat="45.19503" lon="4.68778">
        <ele>394</ele>
        <time>2021-02-22T19:57:17Z</time>
      </trkpt>
      <trkpt lat="45.19527" lon="4.68809">
        <ele>394</ele>
        <time>2021-02-22T19:57:43Z</time>
      </trkpt>
      <trkpt lat="45.19577" lon="4.68832">
        <ele>395</ele>
        <time>2021-02-22T19:58:25Z</time>
      </trkpt>
      <trkpt lat="45.19634" lon="4.68854">
        <ele>396</ele>
        <time>2021-02-22T19:59:12Z</time>
      </trkpt>
      <trkpt lat="45.19702" lon="4.68877">
        <ele>396</ele>
        <time>2021-02-22T20:00:08Z</time>
      </trkpt>
      <trkpt lat="45.19774" lon="4.68889">
        <ele>397</ele>
        <time>2021-02-22T20:01:06Z</time>
      </trkpt>
      <trkpt lat="45.19847" lon="4.68901">
        <ele>398</ele>
        <time>2021-02-22T20:02:05Z</time>
      </trkpt>
      <trkpt lat="45.19903" lon="4.68909">
        <ele>398</ele>
        <time>2021-02-22T20:02:50Z</time>
      </trkpt>
      <trkpt lat="45.19996" lon="4.68897">
        <ele>396</ele>
        <time>2021-02-22T20:04:05Z</time>
      </trkpt>
      <trkpt lat="45.20078" lon="4.68902">
        <ele>401</ele>
        <time>2021-02-22T20:05:10Z</time>
      </trkpt>
      <trkpt lat="45.20177" lon="4.68992">
        <ele>398</ele>
        <time>2021-02-22T20:06:45Z</time>
      </trkpt>
      <trkpt lat="45.20191" lon="4.69021">
        <ele>395</ele>
        <time>2021-02-22T20:07:04Z</time>
      </trkpt>
      <trkpt lat="45.2027" lon="4.69009">
        <ele>389</ele>
        <time>2021-02-22T20:08:08Z</time>
      </trkpt>
      <trkpt lat="45.20354" lon="4.68931">
        <ele>387</ele>
        <time>2021-02-22T20:09:28Z</time>
      </trkpt>
      <trkpt lat="45.20436" lon="4.68857">
        <ele>388</ele>
        <time>2021-02-22T20:10:46Z</time>
      </trkpt>
      <trkpt lat="45.20481" lon="4.68833">
        <ele>387</ele>
        <time>2021-02-22T20:11:25Z</time>
      </trkpt>
      <trkpt lat="45.20513" lon="4.68795">
        <ele>386</ele>
        <time>2021-02-22T20:11:58Z</time>
      </trkpt>
      <trkpt lat="45.20542" lon="4.68789">
        <ele>383</ele>
        <time>2021-02-22T20:12:22Z</time>
      </trkpt>
      <trkpt lat="45.2058" lon="4.6876">
        <ele>379</ele>
        <time>2021-02-22T20:12:56Z</time>
      </trkpt>
      <trkpt lat="45.20569" lon="4.68704">
        <ele>382</ele>
        <time>2021-02-22T20:13:29Z</time>
      </trkpt>
      <trkpt lat="45.20565" lon="4.68643">
        <ele>384</ele>
        <time>2021-02-22T20:14:04Z</time>
      </trkpt>
      <trkpt lat="45.20598" lon="4.68572">
        <ele>384</ele>
        <time>2021-02-22T20:14:51Z</time>
      </trkpt>
      <trkpt lat="45.20624" lon="4.68509">
        <ele>384</ele>
        <time>2021-02-22T20:15:33Z</time>
      </trkpt>
      <trkpt lat="45.20659" lon="4.68489">
        <ele>383</ele>
        <time>2021-02-22T20:16:03Z</time>
      </trkpt>
      <trkpt lat="45.20702" lon="4.68359">
        <ele>373</ele>
        <time>2021-02-22T20:17:24Z</time>
      </trkpt>
      <trkpt lat="45.20712" lon="4.68251">
        <ele>369</ele>
        <time>2021-02-22T20:18:25Z</time>
      </trkpt>
      <trkpt lat="45.20582" lon="4.68184">
        <ele>380</ele>
        <time>2021-02-22T20:20:16Z</time>
      </trkpt>
      <trkpt lat="45.20493" lon="4.68242">
        <ele>390</ele>
        <time>2021-02-22T20:21:35Z</time>
      </trkpt>
      <trkpt lat="45.20399" lon="4.68281">
        <ele>394</ele>
        <time>2021-02-22T20:22:53Z</time>
      </trkpt>
      <trkpt lat="45.20298" lon="4.68297">
        <ele>398</ele>
        <time>2021-02-22T20:24:14Z</time>
      </trkpt>
      <trkpt lat="45.20213" lon="4.68295">
        <ele>403</ele>
        <time>2021-02-22T20:25:22Z</time>
      </trkpt>
      <trkpt lat="45.20135" lon="4.68293">
        <ele>407</ele>
        <time>2021-02-22T20:26:25Z</time>
      </trkpt>
      <trkpt lat="45.20102" lon="4.68216">
        <ele>408</ele>
        <time>2021-02-22T20:27:16Z</time>
      </trkpt>
      <trkpt lat="45.20064" lon="4.68008">
        <ele>404</ele>
        <time>2021-02-22T20:29:17Z</time>
      </trkpt>
      <trkpt lat="45.20041" lon="4.67904">
        <ele>408</ele>
        <time>2021-02-22T20:30:18Z</time>
      </trkpt>
      <trkpt lat="45.19956" lon="4.67495">
        <ele>410</ele>
        <time>2021-02-22T20:34:19Z</time>
      </trkpt>
      <trkpt lat="45.19766" lon="4.67257">
        <ele>398</ele>
        <time>2021-02-22T20:37:42Z</time>
      </trkpt>
      <trkpt lat="45.19628" lon="4.67087">
        <ele>408</ele>
        <time>2021-02-22T20:40:08Z</time>
      </trkpt>
      <trkpt lat="45.19348" lon="4.67072">
        <ele>418</ele>
        <time>2021-02-22T20:43:53Z</time>
      </trkpt>
      <trkpt lat="45.19265" lon="4.67066">
        <ele>423</ele>
        <time>2021-02-22T20:44:59Z</time>
      </trkpt>
      <trkpt lat="45.19208" lon="4.67048">
        <ele>426</ele>
        <time>2021-02-22T20:45:46Z</time>
      </trkpt>
      <trkpt lat="45.19161" lon="4.67014">
        <ele>429</ele>
        <time>2021-02-22T20:46:28Z</time>
      </trkpt>
      <trkpt lat="45.19088" lon="4.67016">
        <ele>429</ele>
        <time>2021-02-22T20:47:27Z</time>
      </trkpt>
      <trkpt lat="45.19006" lon="4.67019">
        <ele>428</ele>
        <time>2021-02-22T20:48:32Z</time>
      </trkpt>
      <trkpt lat="45.18921" lon="4.67001">
        <ele>426</ele>
        <time>2021-02-22T20:49:41Z</time>
      </trkpt>
      <trkpt lat="45.18782" lon="4.66966">
        <ele>424</ele>
        <time>2021-02-22T20:51:34Z</time>
      </trkpt>
      <trkpt lat="45.18606" lon="4.66936">
        <ele>421</ele>
        <time>2021-02-22T20:53:56Z</time>
      </trkpt>
      <trkpt lat="45.18513" lon="4.6691">
        <ele>419</ele>
        <time>2021-02-22T20:55:12Z</time>
      </trkpt>
      <trkpt lat="45.18382" lon="4.66914">
        <ele>423</ele>
        <time>2021-02-22T20:56:57Z</time>
      </trkpt>
      <trkpt lat="45.18273" lon="4.66901">
        <ele>428</ele>
        <time>2021-02-22T20:58:24Z</time>
      </trkpt>
      <trkpt lat="45.18167" lon="4.66955">
        <ele>430</ele>
        <time>2021-02-22T20:59:55Z</time>
      </trkpt>
      <trkpt lat="45.18052" lon="4.66995">
        <ele>433</ele>
        <time>2021-02-22T21:01:29Z</time>
      </trkpt>
      <trkpt lat="45.17945" lon="4.67019">
        <ele>435</ele>
        <time>2021-02-22T21:02:56Z</time>
      </trkpt>
      <trkpt lat="45.17894" lon="4.66976">
        <ele>436</ele>
        <time>2021-02-22T21:03:44Z</time>
      </trkpt>
      <trkpt lat="45.17779" lon="4.66854">
        <ele>435</ele>
        <time>2021-02-22T21:05:39Z</time>
      </trkpt>
      <trkpt lat="45.17673" lon="4.66749">
        <ele>432</ele>
        <time>2021-02-22T21:07:22Z</time>
      </trkpt>
      <trkpt lat="45.17628" lon="4.66706">
        <ele>431</ele>
        <time>2021-02-22T21:08:06Z</time>
      </trkpt>
      <trkpt lat="45.1757" lon="4.66719">
        <ele>427</ele>
        <time>2021-02-22T21:08:53Z</time>
      </trkpt>
      <trkpt lat="45.17487" lon="4.66679">
        <ele>428</ele>
        <time>2021-02-22T21:10:03Z</time>
      </trkpt>
      <trkpt lat="45.17386" lon="4.66659">
        <ele>428</ele>
        <time>2021-02-22T21:11:24Z</time>
      </trkpt>
      <trkpt lat="45.17286" lon="4.6664">
        <ele>429</ele>
        <time>2021-02-22T21:12:45Z</time>
      </trkpt>
      <trkpt lat="45.17185" lon="4.66635">
        <ele>431</ele>
        <time>2021-02-22T21:14:06Z</time>
      </trkpt>
      <trkpt lat="45.17086" lon="4.66631">
        <ele>432</ele>
        <time>2021-02-22T21:15:25Z</time>
      </trkpt>
      <trkpt lat="45.17027" lon="4.66649">
        <ele>433</ele>
        <time>2021-02-22T21:16:14Z</time>
      </trkpt>
      <trkpt lat="45.16961" lon="4.66649">
        <ele>437</ele>
        <time>2021-02-22T21:17:07Z</time>
      </trkpt>
      <trkpt lat="45.16892" lon="4.66681">
        <ele>441</ele>
        <time>2021-02-22T21:18:05Z</time>
      </trkpt>
      <trkpt lat="45.16838" lon="4.66716">
        <ele>445</ele>
        <time>2021-02-22T21:18:52Z</time>
      </trkpt>
      <trkpt lat="45.16787" lon="4.66697">
        <ele>452</ele>
        <time>2021-02-22T21:19:34Z</time>
      </trkpt>
      <trkpt lat="45.16729" lon="4.66665">
        <ele>458</ele>
        <time>2021-02-22T21:20:24Z</time>
      </trkpt>
      <trkpt lat="45.16657" lon="4.66584">
        <ele>462</ele>
        <time>2021-02-22T21:21:38Z</time>
      </trkpt>
      <trkpt lat="45.16594" lon="4.66564">
        <ele>459</ele>
        <time>2021-02-22T21:22:30Z</time>
      </trkpt>
      <trkpt lat="45.16561" lon="4.66468">
        <ele>458</ele>
        <time>2021-02-22T21:23:30Z</time>
      </trkpt>
      <trkpt lat="45.16503" lon="4.66439">
        <ele>453</ele>
        <time>2021-02-22T21:24:19Z</time>
      </trkpt>
      <trkpt lat="45.16455" lon="4.66435">
        <ele>449</ele>
        <time>2021-02-22T21:24:58Z</time>
      </trkpt>
      <trkpt lat="45.16444" lon="4.66297">
        <ele>451</ele>
        <time>2021-02-22T21:26:16Z</time>
      </trkpt>
      <trkpt lat="45.16439" lon="4.66153">
        <ele>455</ele>
        <time>2021-02-22T21:27:37Z</time>
      </trkpt>
      <trkpt lat="45.16427" lon="4.66016">
        <ele>456</ele>
        <time>2021-02-22T21:28:55Z</time>
      </trkpt>
      <trkpt lat="45.16414" lon="4.65917">
        <ele>447</ele>
        <time>2021-02-22T21:29:52Z</time>
      </trkpt>
      <trkpt lat="45.16427" lon="4.65867">
        <ele>444</ele>
        <time>2021-02-22T21:30:22Z</time>
      </trkpt>
      <trkpt lat="45.16408" lon="4.65805">
        <ele>436</ele>
        <time>2021-02-22T21:31:00Z</time>
      </trkpt>
      <trkpt lat="45.16416" lon="4.65699">
        <ele>432</ele>
        <time>2021-02-22T21:32:01Z</time>
      </trkpt>
      <trkpt lat="45.16389" lon="4.657">
        <ele>428</ele>
        <time>2021-02-22T21:32:22Z</time>
      </trkpt>
      <trkpt lat="45.16394" lon="4.65675">
        <ele>428</ele>
        <time>2021-02-22T21:32:37Z</time>
      </trkpt>
      <trkpt lat="45.16362" lon="4.65644">
        <ele>425</ele>
        <time>2021-02-22T21:33:08Z</time>
      </trkpt>
      <trkpt lat="45.16342" lon="4.65653">
        <ele>422</ele>
        <time>2021-02-22T21:33:25Z</time>
      </trkpt>
      <trkpt lat="45.16319" lon="4.65641">
        <ele>422</ele>
        <time>2021-02-22T21:33:44Z</time>
      </trkpt>
      <trkpt lat="45.16284" lon="4.65672">
        <ele>423</ele>
        <time>2021-02-22T21:34:17Z</time>
      </trkpt>
      <trkpt lat="45.16248" lon="4.65663">
        <ele>425</ele>
        <time>2021-02-22T21:34:47Z</time>
      </trkpt>
      <trkpt lat="45.16208" lon="4.65529">
        <ele>434</ele>
        <time>2021-02-22T21:36:09Z</time>
      </trkpt>
      <trkpt lat="45.16169" lon="4.65455">
        <ele>436</ele>
        <time>2021-02-22T21:37:01Z</time>
      </trkpt>
      <trkpt lat="45.16154" lon="4.65464">
        <ele>441</ele>
        <time>2021-02-22T21:37:14Z</time>
      </trkpt>
      <trkpt lat="45.16093" lon="4.65383">
        <ele>450</ele>
        <time>2021-02-22T21:38:21Z</time>
      </trkpt>
      <trkpt lat="45.1607" lon="4.65389">
        <ele>454</ele>
        <time>2021-02-22T21:38:40Z</time>
      </trkpt>
      <trkpt lat="45.16079" lon="4.65517">
        <ele>460</ele>
        <time>2021-02-22T21:39:52Z</time>
      </trkpt>
      <trkpt lat="45.16033" lon="4.65546">
        <ele>465</ele>
        <time>2021-02-22T21:40:33Z</time>
      </trkpt>
      <trkpt lat="45.15981" lon="4.65517">
        <ele>472</ele>
        <time>2021-02-22T21:41:17Z</time>
      </trkpt>
      <trkpt lat="45.15913" lon="4.65458">
        <ele>477</ele>
        <time>2021-02-22T21:42:21Z</time>
      </trkpt>
      <trkpt lat="45.15841" lon="4.65576">
        <ele>472</ele>
        <time>2021-02-22T21:43:49Z</time>
      </trkpt>
      <trkpt lat="45.15803" lon="4.65575">
        <ele>473</ele>
        <time>2021-02-22T21:44:20Z</time>
      </trkpt>
      <trkpt lat="45.15765" lon="4.65573">
        <ele>474</ele>
        <time>2021-02-22T21:44:50Z</time>
      </trkpt>
      <trkpt lat="45.15723" lon="4.65547">
        <ele>478</ele>
        <time>2021-02-22T21:45:27Z</time>
      </trkpt>
      <trkpt lat="45.15683" lon="4.65561">
        <ele>478</ele>
        <time>2021-02-22T21:46:00Z</time>
      </trkpt>
      <trkpt lat="45.15667" lon="4.65606">
        <ele>476</ele>
        <time>2021-02-22T21:46:28Z</time>
      </trkpt>
      <trkpt lat="45.15663" lon="4.65652">
        <ele>477</ele>
        <time>2021-02-22T21:46:54Z</time>
      </trkpt>
      <trkpt lat="45.15684" lon="4.65703">
        <ele>475</ele>
        <time>2021-02-22T21:47:28Z</time>
      </trkpt>
      <trkpt lat="45.15706" lon="4.65755">
        <ele>474</ele>
        <time>2021-02-22T21:48:02Z</time>
      </trkpt>
      <trkpt lat="45.15726" lon="4.65811">
        <ele>474</ele>
        <time>2021-02-22T21:48:37Z</time>
      </trkpt>
      <trkpt lat="45.15715" lon="4.65848">
        <ele>478</ele>
        <time>2021-02-22T21:49:00Z</time>
      </trkpt>
      <trkpt lat="45.15711" lon="4.65881">
        <ele>480</ele>
        <time>2021-02-22T21:49:19Z</time>
      </trkpt>
      <trkpt lat="45.15733" lon="4.65983">
        <ele>485</ele>
        <time>2021-02-22T21:50:19Z</time>
      </trkpt>
      <trkpt lat="45.1578" lon="4.66119">
        <ele>482</ele>
        <time>2021-02-22T21:51:45Z</time>
      </trkpt>
      <trkpt lat="45.15771" lon="4.66235">
        <ele>486</ele>
        <time>2021-02-22T21:52:51Z</time>
      </trkpt>
      <trkpt lat="45.15743" lon="4.66323">
        <ele>492</ele>
        <time>2021-02-22T21:53:45Z</time>
      </trkpt>
      <trkpt lat="45.15691" lon="4.66367">
        <ele>491</ele>
        <time>2021-02-22T21:54:34Z</time>
      </trkpt>
      <trkpt lat="45.15656" lon="4.66365">
        <ele>491</ele>
        <time>2021-02-22T21:55:02Z</time>
      </trkpt>
      <trkpt lat="45.15643" lon="4.664">
        <ele>489</ele>
        <time>2021-02-22T21:55:24Z</time>
      </trkpt>
      <trkpt lat="45.15617" lon="4.66465">
        <ele>485</ele>
        <time>2021-02-22T21:56:06Z</time>
      </trkpt>
      <trkpt lat="45.15563" lon="4.66526">
        <ele>482</ele>
        <time>2021-02-22T21:57:01Z</time>
      </trkpt>
      <trkpt lat="45.15531" lon="4.6662">
        <ele>473</ele>
        <time>2021-02-22T21:58:00Z</time>
      </trkpt>
      <trkpt lat="45.1549" lon="4.66731">
        <ele>470</ele>
        <time>2021-02-22T21:59:11Z</time>
      </trkpt>
      <trkpt lat="45.15445" lon="4.66807">
        <ele>470</ele>
        <time>2021-02-22T22:00:07Z</time>
      </trkpt>
      <trkpt lat="45.15394" lon="4.66785">
        <ele>473</ele>
        <time>2021-02-22T22:00:50Z</time>
      </trkpt>
      <trkpt lat="45.15333" lon="4.6676">
        <ele>474</ele>
        <time>2021-02-22T22:01:41Z</time>
      </trkpt>
      <trkpt lat="45.15269" lon="4.66717">
        <ele>474</ele>
        <time>2021-02-22T22:02:37Z</time>
      </trkpt>
      <trkpt lat="45.15201" lon="4.66725">
        <ele>469</ele>
        <time>2021-02-22T22:03:32Z</time>
      </trkpt>
      <trkpt lat="45.15172" lon="4.66711">
        <ele>467</ele>
        <time>2021-02-22T22:03:57Z</time>
      </trkpt>
      <trkpt lat="45.15152" lon="4.66761">
        <ele>464</ele>
        <time>2021-02-22T22:04:29Z</time>
      </trkpt>
      <trkpt lat="45.15167" lon="4.66831">
        <ele>459</ele>
        <time>2021-02-22T22:05:10Z</time>
      </trkpt>
      <trkpt lat="45.15115" lon="4.66826">
        <ele>453</ele>
        <time>2021-02-22T22:05:52Z</time>
      </trkpt>
      <trkpt lat="45.15063" lon="4.66709">
        <ele>453</ele>
        <time>2021-02-22T22:07:10Z</time>
      </trkpt>
      <trkpt lat="45.15054" lon="4.66618">
        <ele>452</ele>
        <time>2021-02-22T22:08:02Z</time>
      </trkpt>
      <trkpt lat="45.14979" lon="4.66547">
        <ele>438</ele>
        <time>2021-02-22T22:09:14Z</time>
      </trkpt>
      <trkpt lat="45.14919" lon="4.66523">
        <ele>431</ele>
        <time>2021-02-22T22:10:04Z</time>
      </trkpt>
      <trkpt lat="45.14829" lon="4.66582">
        <ele>443</ele>
        <time>2021-02-22T22:11:24Z</time>
      </trkpt>
      <trkpt lat="45.14811" lon="4.6657">
        <ele>445</ele>
        <time>2021-02-22T22:11:40Z</time>
      </trkpt>
      <trkpt lat="45.14783" lon="4.6658">
        <ele>448</ele>
        <time>2021-02-22T22:12:03Z</time>
      </trkpt>
      <trkpt lat="45.14745" lon="4.66559">
        <ele>454</ele>
        <time>2021-02-22T22:12:35Z</time>
      </trkpt>
      <trkpt lat="45.14702" lon="4.66515">
        <ele>461</ele>
        <time>2021-02-22T22:13:18Z</time>
      </trkpt>
      <trkpt lat="45.14622" lon="4.66509">
        <ele>472</ele>
        <time>2021-02-22T22:14:22Z</time>
      </trkpt>
      <trkpt lat="45.1462" lon="4.66682">
        <ele>469</ele>
        <time>2021-02-22T22:16:00Z</time>
      </trkpt>
      <trkpt lat="45.14597" lon="4.66829">
        <ele>470</ele>
        <time>2021-02-22T22:17:25Z</time>
      </trkpt>
      <trkpt lat="45.14565" lon="4.66876">
        <ele>473</ele>
        <time>2021-02-22T22:18:02Z</time>
      </trkpt>
      <trkpt lat="45.1461" lon="4.6698">
        <ele>462</ele>
        <time>2021-02-22T22:19:10Z</time>
      </trkpt>
      <trkpt lat="45.14611" lon="4.67102">
        <ele>461</ele>
        <time>2021-02-22T22:20:19Z</time>
      </trkpt>
      <trkpt lat="45.14657" lon="4.67206">
        <ele>457</ele>
        <time>2021-02-22T22:21:29Z</time>
      </trkpt>
      <trkpt lat="45.1472" lon="4.67309">
        <ele>453</ele>
        <time>2021-02-22T22:22:46Z</time>
      </trkpt>
      <trkpt lat="45.14775" lon="4.67391">
        <ele>452</ele>
        <time>2021-02-22T22:23:50Z</time>
      </trkpt>
      <trkpt lat="45.14866" lon="4.67461">
        <ele>445</ele>
        <time>2021-02-22T22:25:12Z</time>
      </trkpt>
      <trkpt lat="45.14934" lon="4.6755">
        <ele>442</ele>
        <time>2021-02-22T22:26:27Z</time>
      </trkpt>
      <trkpt lat="45.15006" lon="4.67646">
        <ele>437</ele>
        <time>2021-02-22T22:27:46Z</time>
      </trkpt>
      <trkpt lat="45.15049" lon="4.67702">
        <ele>433</ele>
        <time>2021-02-22T22:28:32Z</time>
      </trkpt>
      <trkpt lat="45.15028" lon="4.67749">
        <ele>438</ele>
        <time>2021-02-22T22:29:04Z</time>
      </trkpt>
      <trkpt lat="45.15025" lon="4.67814">
        <ele>437</ele>
        <time>2021-02-22T22:29:41Z</time>
      </trkpt>
      <trkpt lat="45.15013" lon="4.6787">
        <ele>438</ele>
        <time>2021-02-22T22:30:14Z</time>
      </trkpt>
      <trkpt lat="45.1502" lon="4.67902">
        <ele>436</ele>
        <time>2021-02-22T22:30:33Z</time>
      </trkpt>
      <trkpt lat="45.15001" lon="4.67972">
        <ele>441</ele>
        <time>2021-02-22T22:31:15Z</time>
      </trkpt>
      <trkpt lat="45.15" lon="4.6808">
        <ele>446</ele>
        <time>2021-02-22T22:32:16Z</time>
      </trkpt>
      <trkpt lat="45.1499" lon="4.68151">
        <ele>446</ele>
        <time>2021-02-22T22:32:57Z</time>
      </trkpt>
      <trkpt lat="45.1497" lon="4.68204">
        <ele>445</ele>
        <time>2021-02-22T22:33:31Z</time>
      </trkpt>
      <trkpt lat="45.1491" lon="4.68202">
        <ele>449</ele>
        <time>2021-02-22T22:34:19Z</time>
      </trkpt>
      <trkpt lat="45.14829" lon="4.68163">
        <ele>451</ele>
        <time>2021-02-22T22:35:27Z</time>
      </trkpt>
      <trkpt lat="45.14772" lon="4.68095">
        <ele>454</ele>
        <time>2021-02-22T22:36:27Z</time>
      </trkpt>
      <trkpt lat="45.14743" lon="4.68037">
        <ele>457</ele>
        <time>2021-02-22T22:37:07Z</time>
      </trkpt>
      <trkpt lat="45.14686" lon="4.67934">
        <ele>456</ele>
        <time>2021-02-22T22:38:21Z</time>
      </trkpt>
      <trkpt lat="45.14687" lon="4.67869">
        <ele>459</ele>
        <time>2021-02-22T22:38:58Z</time>
      </trkpt>
      <trkpt lat="45.14653" lon="4.67738">
        <ele>464</ele>
        <time>2021-02-22T22:40:17Z</time>
      </trkpt>
      <trkpt lat="45.14631" lon="4.67747">
        <ele>462</ele>
        <time>2021-02-22T22:40:35Z</time>
      </trkpt>
      <trkpt lat="45.14569" lon="4.67806">
        <ele>448</ele>
        <time>2021-02-22T22:41:35Z</time>
      </trkpt>
      <trkpt lat="45.14536" lon="4.67802">
        <ele>444</ele>
        <time>2021-02-22T22:42:01Z</time>
      </trkpt>
      <trkpt lat="45.14476" lon="4.67863">
        <ele>422</ele>
        <time>2021-02-22T22:43:00Z</time>
      </trkpt>
      <trkpt lat="45.14526" lon="4.6789">
        <ele>429</ele>
        <time>2021-02-22T22:43:43Z</time>
      </trkpt>
      <trkpt lat="45.14528" lon="4.68007">
        <ele>414</ele>
        <time>2021-02-22T22:44:49Z</time>
      </trkpt>
      <trkpt lat="45.14543" lon="4.68083">
        <ele>407</ele>
        <time>2021-02-22T22:45:34Z</time>
      </trkpt>
      <trkpt lat="45.14538" lon="4.68177">
        <ele>395</ele>
        <time>2021-02-22T22:46:27Z</time>
      </trkpt>
      <trkpt lat="45.14493" lon="4.6811">
        <ele>392</ele>
        <time>2021-02-22T22:47:19Z</time>
      </trkpt>
      <trkpt lat="45.14456" lon="4.68172">
        <ele>389</ele>
        <time>2021-02-22T22:48:05Z</time>
      </trkpt>
      <trkpt lat="45.14462" lon="4.68228">
        <ele>388</ele>
        <time>2021-02-22T22:48:37Z</time>
      </trkpt>
      <trkpt lat="45.14458" lon="4.68301">
        <ele>391</ele>
        <time>2021-02-22T22:49:19Z</time>
      </trkpt>
      <trkpt lat="45.1447" lon="4.68375">
        <ele>397</ele>
        <time>2021-02-22T22:50:01Z</time>
      </trkpt>
      <trkpt lat="45.14425" lon="4.6835">
        <ele>404</ele>
        <time>2021-02-22T22:50:40Z</time>
      </trkpt>
      <trkpt lat="45.14432" lon="4.68427">
        <ele>415</ele>
        <time>2021-02-22T22:51:24Z</time>
      </trkpt>
      <trkpt lat="45.14468" lon="4.68504">
        <ele>418</ele>
        <time>2021-02-22T22:52:16Z</time>
      </trkpt>
      <trkpt lat="45.14481" lon="4.6857">
        <ele>426</ele>
        <time>2021-02-22T22:52:55Z</time>
      </trkpt>
      <trkpt lat="45.14472" lon="4.68586">
        <ele>430</ele>
        <time>2021-02-22T22:53:06Z</time>
      </trkpt>
      <trkpt lat="45.14503" lon="4.68655">
        <ele>434</ele>
        <time>2021-02-22T22:53:53Z</time>
      </trkpt>
      <trkpt lat="45.14491" lon="4.68662">
        <ele>437</ele>
        <time>2021-02-22T22:54:03Z</time>
      </trkpt>
      <trkpt lat="45.14489" lon="4.68702">
        <ele>443</ele>
        <time>2021-02-22T22:54:26Z</time>
      </trkpt>
      <trkpt lat="45.14516" lon="4.68773">
        <ele>448</ele>
        <time>2021-02-22T22:55:11Z</time>
      </trkpt>
      <trkpt lat="45.14532" lon="4.68853">
        <ele>454</ele>
        <time>2021-02-22T22:55:58Z</time>
      </trkpt>
      <trkpt lat="45.14552" lon="4.68911">
        <ele>457</ele>
        <time>2021-02-22T22:56:35Z</time>
      </trkpt>
      <trkpt lat="45.14599" lon="4.68967">
        <ele>458</ele>
        <time>2021-02-22T22:57:24Z</time>
      </trkpt>
      <trkpt lat="45.14612" lon="4.69086">
        <ele>464</ele>
        <time>2021-02-22T22:58:32Z</time>
      </trkpt>
      <trkpt lat="45.14613" lon="4.69134">
        <ele>466</ele>
        <time>2021-02-22T22:58:59Z</time>
      </trkpt>
      <trkpt lat="45.14629" lon="4.6918">
        <ele>467</ele>
        <time>2021-02-22T22:59:28Z</time>
      </trkpt>
      <trkpt lat="45.14672" lon="4.69228">
        <ele>466</ele>
        <time>2021-02-22T23:00:12Z</time>
      </trkpt>
      <trkpt lat="45.14713" lon="4.69313">
        <ele>467</ele>
        <time>2021-02-22T23:01:10Z</time>
      </trkpt>
      <trkpt lat="45.14672" lon="4.69353">
        <ele>474</ele>
        <time>2021-02-22T23:01:50Z</time>
      </trkpt>
      <trkpt lat="45.14631" lon="4.69366">
        <ele>479</ele>
        <time>2021-02-22T23:02:23Z</time>
      </trkpt>
      <trkpt lat="45.1457" lon="4.69366">
        <ele>486</ele>
        <time>2021-02-22T23:03:12Z</time>
      </trkpt>
      <trkpt lat="45.14529" lon="4.69377">
        <ele>490</ele>
        <time>2021-02-22T23:03:46Z</time>
      </trkpt>
      <trkpt lat="45.14501" lon="4.69394">
        <ele>493</ele>
        <time>2021-02-22T23:04:10Z</time>
      </trkpt>
      <trkpt lat="45.14424" lon="4.69334">
        <ele>508</ele>
        <time>2021-02-22T23:05:20Z</time>
      </trkpt>
      <trkpt lat="45.14319" lon="4.69301">
        <ele>525</ele>
        <time>2021-02-22T23:06:46Z</time>
      </trkpt>
      <trkpt lat="45.14294" lon="4.69289">
        <ele>528</ele>
        <time>2021-02-22T23:07:08Z</time>
      </trkpt>
      <trkpt lat="45.14202" lon="4.69219">
        <ele>540</ele>
        <time>2021-02-22T23:08:31Z</time>
      </trkpt>
      <trkpt lat="45.1411" lon="4.6917">
        <ele>547</ele>
        <time>2021-02-22T23:09:50Z</time>
      </trkpt>
      <trkpt lat="45.14043" lon="4.69139">
        <ele>545</ele>
        <time>2021-02-22T23:10:46Z</time>
      </trkpt>
      <trkpt lat="45.14021" lon="4.69154">
        <ele>544</ele>
        <time>2021-02-22T23:11:06Z</time>
      </trkpt>
      <trkpt lat="45.1404" lon="4.69204">
        <ele>540</ele>
        <time>2021-02-22T23:11:38Z</time>
      </trkpt>
      <trkpt lat="45.13977" lon="4.69213">
        <ele>532</ele>
        <time>2021-02-22T23:12:29Z</time>
      </trkpt>
      <trkpt lat="45.13873" lon="4.69186">
        <ele>528</ele>
        <time>2021-02-22T23:13:53Z</time>
      </trkpt>
      <trkpt lat="45.13726" lon="4.69224">
        <ele>511</ele>
        <time>2021-02-22T23:15:53Z</time>
      </trkpt>
      <trkpt lat="45.1359" lon="4.69227">
        <ele>504</ele>
        <time>2021-02-22T23:17:42Z</time>
      </trkpt>
      <trkpt lat="45.13502" lon="4.69249">
        <ele>496</ele>
        <time>2021-02-22T23:18:53Z</time>
      </trkpt>
      <trkpt lat="45.13491" lon="4.69371">
        <ele>487</ele>
        <time>2021-02-22T23:20:03Z</time>
      </trkpt>
      <trkpt lat="45.13545" lon="4.69468">
        <ele>483</ele>
        <time>2021-02-22T23:21:13Z</time>
      </trkpt>
      <trkpt lat="45.13609" lon="4.69515">
        <ele>485</ele>
        <time>2021-02-22T23:22:10Z</time>
      </trkpt>
      <trkpt lat="45.13738" lon="4.69633">
        <ele>489</ele>
        <time>2021-02-22T23:24:13Z</time>
      </trkpt>
      <trkpt lat="45.13773" lon="4.69668">
        <ele>493</ele>
        <time>2021-02-22T23:24:47Z</time>
      </trkpt>
      <trkpt lat="45.13894" lon="4.69752">
        <ele>504</ele>
        <time>2021-02-22T23:26:35Z</time>
      </trkpt>
      <trkpt lat="45.13991" lon="4.69873">
        <ele>514</ele>
        <time>2021-02-22T23:28:19Z</time>
      </trkpt>
      <trkpt lat="45.14072" lon="4.69982">
        <ele>512</ele>
        <time>2021-02-22T23:29:48Z</time>
      </trkpt>
      <trkpt lat="45.14148" lon="4.70128">
        <ele>497</ele>
        <time>2021-02-22T23:31:31Z</time>
      </trkpt>
      <trkpt lat="45.14255" lon="4.70295">
        <ele>486</ele>
        <time>2021-02-22T23:33:38Z</time>
      </trkpt>
      <trkpt lat="45.14362" lon="4.70387">
        <ele>480</ele>
        <time>2021-02-22T23:35:18Z</time>
      </trkpt>
      <trkpt lat="45.14503" lon="4.70481">
        <ele>476</ele>
        <time>2021-02-22T23:37:23Z</time>
      </trkpt>
      <trkpt lat="45.1466" lon="4.70585">
        <ele>473</ele>
        <time>2021-02-22T23:39:42Z</time>
      </trkpt>
      <trkpt lat="45.1466" lon="4.70616">
        <ele>473</ele>
        <time>2021-02-22T23:39:59Z</time>
      </trkpt>
      <trkpt lat="45.14649" lon="4.70641">
        <ele>473</ele>
        <time>2021-02-22T23:40:16Z</time>
      </trkpt>
      <trkpt lat="45.14654" lon="4.70659">
        <ele>472</ele>
        <time>2021-02-22T23:40:27Z</time>
      </trkpt>
      <trkpt lat="45.14616" lon="4.70674">
        <ele>472</ele>
        <time>2021-02-22T23:40:58Z</time>
      </trkpt>
      <trkpt lat="45.14585" lon="4.70742">
        <ele>471</ele>
        <time>2021-02-22T23:41:44Z</time>
      </trkpt>
      <trkpt lat="45.14548" lon="4.70811">
        <ele>470</ele>
        <time>2021-02-22T23:42:33Z</time>
      </trkpt>
      <trkpt lat="45.1452" lon="4.70847">
        <ele>469</ele>
        <time>2021-02-22T23:43:03Z</time>
      </trkpt>
      <trkpt lat="45.14508" lon="4.7088">
        <ele>468</ele>
        <time>2021-02-22T23:43:24Z</time>
      </trkpt>
      <trkpt lat="45.14489" lon="4.70943">
        <ele>466</ele>
        <time>2021-02-22T23:44:03Z</time>
      </trkpt>
      <trkpt lat="45.14462" lon="4.70999">
        <ele>463</ele>
        <time>2021-02-22T23:44:41Z</time>
      </trkpt>
      <trkpt lat="45.14456" lon="4.71093">
        <ele>460</ele>
        <time>2021-02-22T23:45:35Z</time>
      </trkpt>
      <trkpt lat="45.1437" lon="4.71176">
        <ele>455</ele>
        <time>2021-02-22T23:46:58Z</time>
      </trkpt>
      <trkpt lat="45.14333" lon="4.71287">
        <ele>452</ele>
        <time>2021-02-22T23:48:07Z</time>
      </trkpt>
      <trkpt lat="45.14294" lon="4.71392">
        <ele>449</ele>
        <time>2021-02-22T23:49:14Z</time>
      </trkpt>
      <trkpt lat="45.14263" lon="4.71539">
        <ele>446</ele>
        <time>2021-02-22T23:50:41Z</time>
      </trkpt>
      <trkpt lat="45.14145" lon="4.71651">
        <ele>439</ele>
        <time>2021-02-22T23:52:35Z</time>
      </trkpt>
      <trkpt lat="45.1429" lon="4.71833">
        <ele>432</ele>
        <time>2021-02-22T23:55:10Z</time>
      </trkpt>
      <trkpt lat="45.14407" lon="4.71961">
        <ele>432</ele>
        <time>2021-02-22T23:57:08Z</time>
      </trkpt>
      <trkpt lat="45.14382" lon="4.72059">
        <ele>429</ele>
        <time>2021-02-22T23:58:07Z</time>
      </trkpt>
      <trkpt lat="45.14389" lon="4.72214">
        <ele>426</ele>
        <time>2021-02-22T23:59:35Z</time>
      </trkpt>
      <trkpt lat="45.1438" lon="4.7237">
        <ele>422</ele>
        <time>2021-02-23T00:01:03Z</time>
      </trkpt>
      <trkpt lat="45.14347" lon="4.7251">
        <ele>421</ele>
        <time>2021-02-23T00:02:26Z</time>
      </trkpt>
      <trkpt lat="45.14362" lon="4.72583">
        <ele>423</ele>
        <time>2021-02-23T00:03:09Z</time>
      </trkpt>
      <trkpt lat="45.14435" lon="4.72681">
        <ele>422</ele>
        <time>2021-02-23T00:04:30Z</time>
      </trkpt>
      <trkpt lat="45.14428" lon="4.72756">
        <ele>417</ele>
        <time>2021-02-23T00:05:13Z</time>
      </trkpt>
      <trkpt lat="45.14457" lon="4.72873">
        <ele>413</ele>
        <time>2021-02-23T00:06:23Z</time>
      </trkpt>
      <trkpt lat="45.14466" lon="4.72989">
        <ele>410</ele>
        <time>2021-02-23T00:07:29Z</time>
      </trkpt>
      <trkpt lat="45.14462" lon="4.73071">
        <ele>412</ele>
        <time>2021-02-23T00:08:15Z</time>
      </trkpt>
      <trkpt lat="45.14397" lon="4.73061">
        <ele>404</ele>
        <time>2021-02-23T00:09:07Z</time>
      </trkpt>
      <trkpt lat="45.14331" lon="4.73037">
        <ele>398</ele>
        <time>2021-02-23T00:10:02Z</time>
      </trkpt>
      <trkpt lat="45.14347" lon="4.73085">
        <ele>399</ele>
        <time>2021-02-23T00:10:32Z</time>
      </trkpt>
      <trkpt lat="45.14278" lon="4.73191">
        <ele>401</ele>
        <time>2021-02-23T00:11:53Z</time>
      </trkpt>
      <trkpt lat="45.14228" lon="4.731">
        <ele>405</ele>
        <time>2021-02-23T00:12:58Z</time>
      </trkpt>
      <trkpt lat="45.14136" lon="4.73038">
        <ele>406</ele>
        <time>2021-02-23T00:14:20Z</time>
      </trkpt>
      <trkpt lat="45.13998" lon="4.73159">
        <ele>421</ele>
        <time>2021-02-23T00:16:30Z</time>
      </trkpt>
      <trkpt lat="45.13936" lon="4.73337">
        <ele>430</ele>
        <time>2021-02-23T00:18:22Z</time>
      </trkpt>
      <trkpt lat="45.13884" lon="4.73648">
        <ele>431</ele>
        <time>2021-02-23T00:21:23Z</time>
      </trkpt>
      <trkpt lat="45.13814" lon="4.73558">
        <ele>434</ele>
        <time>2021-02-23T00:22:38Z</time>
      </trkpt>
      <trkpt lat="45.13681" lon="4.73514">
        <ele>440</ele>
        <time>2021-02-23T00:24:28Z</time>
      </trkpt>
      <trkpt lat="45.13528" lon="4.73477">
        <ele>450</ele>
        <time>2021-02-23T00:26:32Z</time>
      </trkpt>
      <trkpt lat="45.13431" lon="4.73392">
        <ele>456</ele>
        <time>2021-02-23T00:28:03Z</time>
      </trkpt>
      <trkpt lat="45.13523" lon="4.73366">
        <ele>451</ele>
        <time>2021-02-23T00:29:18Z</time>
      </trkpt>
      <trkpt lat="45.13664" lon="4.73272">
        <ele>439</ele>
        <time>2021-02-23T00:31:23Z</time>
      </trkpt>
      <trkpt lat="45.13685" lon="4.73257">
        <ele>437</ele>
        <time>2021-02-23T00:31:42Z</time>
      </trkpt>
      <trkpt lat="45.13699" lon="4.73326">
        <ele>436</ele>
        <time>2021-02-23T00:32:22Z</time>
      </trkpt>
    </trkseg>
  </trk>
</gpx>